Latest Weather Observations for Ben Nevis

IDV60801

Issued at 10:05 pm EDT Friday 31 October 2014 (issued every 30 minutes, with the page automatically refreshed every 10 minutes)

About weather observations | Map of weather stations | Latest weather observations for VIC | Other Formats
Station Details ID: 079101 Name: BEN NEVIS Lat: -37.23 Lon: 143.20 Height: 875.0 m
Data from the previous 72 hours. | See also: Recent months at Ben Nevis
Date/Time
EDT
Temp
°C
App
Temp
°C
Dew
Point
Rel
Hum
%
Delta-T
°C
Wind Press
QNH
hPa
Press
MSL
hPa
Rain
since 9 am
mm
Dir
 
Spd
km/h
Gust
km/h
Spd
kts
Gust
kts
31/10:00pm 22.9 18.1 2.4 26 10.2 N 17 32 9 17 - - 0.0
31/09:30pm 22.7 18.7 2.8 27 9.9 N 13 28 7 15 - - 0.0
31/09:00pm 23.1 19.0 2.0 25 10.4 WNW 13 24 7 13 - - 0.0
31/08:30pm 23.9 18.2 -1.1 19 11.7 NNE 19 30 10 16 - - 0.0
31/08:00pm 24.0 18.3 -1.0 19 11.7 N 19 39 10 21 - - 0.0
31/07:30pm 24.3 18.4 -0.8 19 11.8 N 20 35 11 19 - - 0.0
31/07:00pm 24.8 19.0 -0.4 19 12.0 N 20 33 11 18 - - 0.0
31/06:30pm 24.8 18.6 -0.4 19 12.0 N 22 48 12 26 - - 0.0
31/06:00pm 25.2 20.9 0.7 20 12.0 E 13 32 7 17 - - 0.0
31/05:30pm 26.5 21.4 1.0 19 12.6 N 17 32 9 17 - - 0.0
31/05:00pm 25.7 20.9 0.4 19 12.3 NNE 15 35 8 19 - - 0.0
31/04:30pm 26.3 20.5 0.1 18 12.7 N 20 33 11 18 - - 0.0
31/04:00pm 26.6 20.8 -0.4 17 13.0 N 20 41 11 22 - - 0.0
31/03:30pm 27.2 21.7 0.8 18 13.1 NNW 19 39 10 21 - - 0.0
31/03:00pm 26.7 21.3 1.2 19 12.7 N 19 46 10 25 - - 0.0
31/02:30pm 26.4 20.8 0.9 19 12.6 N 20 35 11 19 - - 0.0
31/02:00pm 26.5 21.0 1.7 20 12.4 N 20 39 11 21 - - 0.0
31/01:30pm 25.4 19.8 1.5 21 11.9 N 20 37 11 20 - - 0.0
31/01:00pm 25.4 20.3 2.8 23 11.5 N 19 35 10 19 - - 0.0
31/12:30pm 23.6 18.5 3.0 26 10.4 N 19 35 10 19 - - 0.0
31/12:00pm 22.7 17.5 3.3 28 9.8 N 20 35 11 19 - - 0.0
31/11:30am 20.7 15.6 4.3 34 8.3 N 20 32 11 17 - - 0.0
31/11:00am 20.2 15.2 4.7 36 7.9 N 20 32 11 17 - - 0.0
31/10:30am 20.4 15.2 3.6 33 8.4 N 20 35 11 19 - - 0.0
31/10:00am 17.9 13.8 4.1 40 6.8 NNE 15 24 8 13 - - 0.0
31/09:30am 16.3 12.3 3.0 41 6.4 N 13 20 7 11 - - 0.0
31/09:00am 17.3 12.9 2.5 37 7.1 N 15 24 8 13 - - 0.0
31/08:30am 16.3 12.6 2.3 39 6.6 NNE 11 19 6 10 - - 0.0
31/08:00am 15.2 12.1 3.4 45 5.6 NNE 9 13 5 7 - - 0.0
31/07:30am 15.1 11.8 0.2 36 6.7 NNW 7 11 4 6 - - 0.0
31/07:00am 14.1 11.2 1.7 43 5.7 WNW 6 9 3 5 - - 0.0
31/06:30am 13.2 8.8 0.6 42 5.6 WSW 13 15 7 8 - - 0.0
31/06:00am 13.1 8.3 0.2 41 5.7 WSW 15 19 8 10 - - 0.0
31/05:30am 13.0 8.7 0.7 43 5.5 W 13 22 7 12 - - 0.0
31/05:00am 12.9 8.1 2.7 50 4.7 WSW 17 24 9 13 - - 0.0
31/04:30am 12.8 9.1 4.5 57 4.0 WNW 13 19 7 10 - - 0.0
31/04:00am 13.0 10.0 4.2 55 4.2 W 9 17 5 9 - - 0.0
31/03:30am 13.0 9.6 3.9 54 4.3 W 11 20 6 11 - - 0.0
31/03:00am 12.8 9.0 3.7 54 4.3 W 13 20 7 11 - - 0.0
31/02:30am 13.0 9.0 3.1 51 4.6 W 13 19 7 10 - - 0.0
31/02:00am 13.2 9.5 2.4 48 5.0 W 11 22 6 12 - - 0.0
31/01:30am 12.2 9.1 5.4 63 3.3 W 11 15 6 8 - - 0.0
31/01:00am 12.2 9.1 5.6 64 3.2 W 11 15 6 8 - - 0.0
31/12:30am 12.1 9.8 5.9 66 3.1 NW 7 11 4 6 - - 0.0
31/12:00am 12.4 10.4 6.2 66 3.1 NW 6 9 3 5 - - 0.0
 
Date/Time
EDT
Temp
°C
App
Temp
°C
Dew
Point
Rel
Hum
%
Delta-T
°C
Wind Press
QNH
hPa
Press
MSL
hPa
Rain
since 9 am
mm
Dir
 
Spd
km/h
Gust
km/h
Spd
kts
Gust
kts
30/11:30pm 12.6 10.7 6.6 67 3.0 NW 6 11 3 6 - - 0.0
30/11:00pm 12.2 9.7 6.5 68 2.8 W 9 11 5 6 - - 0.0
30/10:30pm 12.1 9.9 6.4 68 2.8 WSW 7 13 4 7 - - 0.0
30/10:00pm 13.2 10.9 5.9 61 3.6 NW 7 9 4 5 - - 0.0
30/09:30pm 13.7 11.5 5.3 57 4.1 NNW 6 7 3 4 - - 0.0
30/09:00pm 13.6 11.9 5.7 59 3.9 SSW 4 9 2 5 - - 0.0
30/08:30pm 13.8 10.9 6.4 61 3.7 SSW 11 17 6 9 - - 0.0
30/08:00pm 14.9 11.1 5.7 54 4.6 SSW 15 22 8 12 - - 0.0
30/07:30pm 16.7 13.2 5.3 47 5.7 SSW 13 20 7 11 - - 0.0
30/07:00pm 17.7 14.9 5.0 43 6.4 SW 9 13 5 7 - - 0.0
30/06:30pm 18.7 15.8 4.8 40 7.0 SW 9 13 5 7 - - 0.0
30/06:00pm 19.3 16.4 4.6 38 7.4 SSW 9 13 5 7 - - 0.0
30/05:30pm 19.9 17.3 4.4 36 7.8 SSW 7 15 4 8 - - 0.0
30/05:00pm 20.8 17.9 4.8 35 8.2 W 9 17 5 9 - - 0.0
30/04:30pm 20.5 17.4 3.7 33 8.4 NW 9 15 5 8 - - 0.0
30/04:00pm 19.7 16.6 3.4 34 8.1 NW 9 15 5 8 - - 0.0
30/03:30pm 20.0 17.0 4.1 35 8.0 W 9 20 5 11 - - 0.0
30/03:00pm 20.0 16.3 4.5 36 7.8 W 13 22 7 12 - - 0.0
30/02:30pm 18.9 15.7 3.1 35 7.7 W 9 17 5 9 - - 0.0
30/02:00pm 19.1 15.9 5.2 40 7.1 WNW 11 20 6 11 - - 0.0
30/01:30pm 17.2 14.9 5.5 46 5.9 NW 7 15 4 8 - - 0.0
30/01:00pm 17.1 14.5 6.3 49 5.5 SW 9 19 5 10 - - 0.0
30/12:30pm 16.0 13.4 5.9 51 5.1 W 9 15 5 8 - - 0.0
30/12:00pm 15.4 12.4 6.1 54 4.7 W 11 17 6 9 - - 0.0
30/11:30am 13.1 10.8 5.8 61 3.6 SW 7 11 4 6 - - 0.0
30/11:00am 12.2 9.7 6.5 68 2.8 S 9 13 5 7 - - 0.0
30/10:30am 10.7 7.5 5.3 69 2.6 S 11 17 6 9 - - 0.0
30/10:00am 10.0 7.0 6.0 76 1.9 S 11 17 6 9 - - 0.0
30/09:30am 11.1 9.0 6.6 74 2.2 SW 7 9 4 5 - - 0.0
30/09:00am 9.7 8.0 6.1 78 1.7 W 4 6 2 3 - - 0.0
30/08:30am 7.4 3.6 6.0 91 0.7 SSW 15 24 8 13 - - 0.0
30/08:00am 7.0 3.1 5.5 90 0.7 SSW 15 28 8 15 - - 0.0
30/07:30am 6.2 1.9 5.3 94 0.4 SSW 17 22 9 12 - - 0.0
30/07:00am 6.1 2.6 5.5 96 0.3 SW 13 17 7 9 - - 0.0
30/06:30am 5.9 3.1 5.3 96 0.3 SW 9 13 5 7 - - 0.0
30/06:00am 6.5 3.1 6.1 97 0.2 W 13 20 7 11 - - 0.0
30/05:30am 6.8 2.8 6.5 98 0.1 SW 17 22 9 12 - - 0.0
30/05:00am 7.3 3.2 6.1 92 0.6 SW 17 22 9 12 - - 0.0
30/04:30am 8.9 4.3 6.7 86 1.1 W 20 28 11 15 - - 0.0
30/04:00am 8.9 5.3 6.9 87 1.0 W 15 20 8 11 - - 0.0
30/03:30am 8.5 4.5 6.5 87 1.0 W 17 20 9 11 - - 0.0
30/03:00am 8.4 4.3 6.2 86 1.1 W 17 20 9 11 - - 0.0
30/02:30am 8.6 4.5 6.4 86 1.1 WSW 17 19 9 10 - - 0.0
30/02:00am 8.9 5.2 6.5 85 1.2 WSW 15 19 8 10 - - 0.0
30/01:30am 9.4 5.8 6.8 84 1.3 WSW 15 22 8 12 - - 0.0
30/01:00am 9.2 5.3 7.2 87 1.0 W 17 24 9 13 - - 0.0
30/12:30am 8.7 5.5 8.3 97 0.2 SW 15 20 8 11 - - 0.0
30/12:00am 8.7 4.7 8.4 98 0.2 SW 19 24 10 13 - - 0.0
 
Date/Time
EDT
Temp
°C
App
Temp
°C
Dew
Point
Rel
Hum
%
Delta-T
°C
Wind Press
QNH
hPa
Press
MSL
hPa
Rain
since 9 am
mm
Dir
 
Spd
km/h
Gust
km/h
Spd
kts
Gust
kts
29/11:30pm 8.8 4.6 8.4 97 0.2 SW 20 28 11 15 - - 0.0
29/11:00pm 9.2 4.1 7.6 90 0.8 SSW 24 32 13 17 - - 0.0
29/10:30pm 9.8 5.3 6.9 82 1.4 SSW 20 28 11 15 - - 0.0
29/10:00pm 10.6 5.6 6.4 75 2.1 SW 22 32 12 17 - - 0.0
29/09:30pm 11.3 5.9 6.4 72 2.4 SW 24 32 13 17 - - 0.0
29/09:00pm 11.7 5.9 6.4 70 2.6 SSW 26 33 14 18 - - 0.0
29/08:30pm 12.4 6.7 6.9 69 2.8 SSW 26 35 14 19 - - 0.0
29/08:00pm 13.7 9.1 5.8 59 3.9 SW 19 28 10 15 - - 0.0
29/07:30pm 15.7 11.8 5.3 50 5.2 WSW 15 24 8 13 - - 0.0
29/07:00pm 16.5 12.6 5.2 47 5.7 W 15 24 8 13 - - 0.0
29/06:30pm 17.1 13.1 4.8 44 6.1 W 15 28 8 15 - - 0.0
29/06:00pm 18.1 13.1 4.7 41 6.7 W 20 32 11 17 - - 0.0
29/05:30pm 19.5 16.4 5.6 40 7.2 W 11 26 6 14 - - 0.0
29/05:00pm 19.2 15.6 4.9 39 7.2 W 13 20 7 11 - - 0.0
29/04:30pm 19.7 16.6 5.4 39 7.3 W 11 20 6 11 - - 0.0
29/04:00pm 19.5 16.8 5.6 40 7.2 W 9 20 5 11 - - 0.0
29/03:30pm 18.6 15.5 5.5 42 6.7 NNW 11 20 6 11 - - 0.0
29/03:00pm 18.5 15.5 6.0 44 6.4 N 11 19 6 10 - - 0.0
29/02:30pm 18.5 15.4 5.7 43 6.6 WNW 11 22 6 12 - - 0.0
29/02:00pm 18.1 15.3 6.9 48 5.9 NNW 11 22 6 12 - - 0.0
29/01:30pm 17.5 14.5 6.1 47 5.8 NNW 11 20 6 11 - - 0.0
29/01:00pm 16.7 14.1 5.9 49 5.5 NNW 9 19 5 10 - - 0.0
29/12:30pm 15.0 12.2 5.2 52 4.9 N 9 20 5 11 - - 0.0
29/12:00pm 14.7 11.8 6.5 58 4.2 NNW 11 19 6 10 - - 0.0
29/11:30am 12.6 9.4 5.3 61 3.6 NNW 11 19 6 10 - - 0.0
29/11:00am 12.0 9.4 5.9 66 3.0 WNW 9 15 5 8 - - 0.0
29/10:30am 11.2 8.4 5.1 66 2.9 NW 9 17 5 9 - - 0.0
29/10:00am 10.2 7.7 5.0 70 2.5 WNW 7 13 4 7 - - 0.0
29/09:30am 8.2 5.6 4.2 76 1.8 NW 7 11 4 6 - - 0.0
29/09:00am 8.3 5.1 5.1 80 1.5 W 11 17 6 9 - - 0.0
29/08:30am 7.4 3.8 5.0 85 1.1 WSW 13 20 7 11 - - 0.0
29/08:00am 6.5 2.1 4.5 87 0.9 WSW 17 22 9 12 - - 0.0
29/07:30am 5.3 0.8 4.1 92 0.5 WSW 17 24 9 13 - - 0.0
29/07:00am 5.3 1.2 4.4 94 0.4 WSW 15 20 8 11 - - 0.0
29/06:30am 5.1 0.6 4.2 94 0.4 SW 17 24 9 13 - - 0.0
29/06:00am 5.3 0.8 4.4 94 0.4 SW 17 28 9 15 - - 0.0
29/05:30am 5.4 1.4 4.7 95 0.3 SW 15 24 8 13 - - 0.0
29/05:00am 5.5 0.7 4.9 96 0.3 SW 19 33 10 18 - - 0.0
29/04:30am 5.7 0.8 5.1 96 0.3 SW 20 30 11 16 - - 0.0
29/04:00am 5.7 1.0 5.0 95 0.3 SW 19 26 10 14 - - 0.0
29/03:30am 5.9 0.9 4.7 92 0.5 SW 20 30 11 16 - - 0.0
29/03:00am 5.8 0.8 4.8 93 0.5 SW 20 32 11 17 - - 0.0
29/02:30am 5.8 0.8 4.6 92 0.5 SW 20 28 11 15 - - 0.0
29/02:00am 5.8 0.7 4.1 89 0.8 SW 20 28 11 15 - - 0.0
29/01:30am 6.0 0.4 3.7 85 1.0 WSW 22 33 12 18 - - 0.0
29/01:00am 6.3 0.8 4.1 86 1.0 SW 22 37 12 20 - - 0.0
29/12:30am 6.3 0.1 4.3 87 0.9 SW 26 43 14 23 - - 0.0
29/12:00am 6.0 0.6 4.3 89 0.8 SW 22 35 12 19 - - 0.0
 
Date/Time
EDT
Temp
°C
App
Temp
°C
Dew
Point
Rel
Hum
%
Delta-T
°C
Wind Press
QNH
hPa
Press
MSL
hPa
Rain
since 9 am
mm
Dir
 
Spd
km/h
Gust
km/h
Spd
kts
Gust
kts
28/11:30pm 6.2 0.8 4.4 88 0.8 SW 22 32 12 17 - - 0.0
28/11:00pm 6.2 -0.8 4.2 87 0.9 SW 30 44 16 24 - - 0.0
28/10:30pm 6.5 -0.4 4.8 89 0.8 SW 30 41 16 22 - - 0.0
28/10:18pm 6.3 -0.2 4.8 90 0.7 SW 28 46 15 25 - - 0.0

Other Formats:

Comma delimited format used in spreadsheet applications
http://www.bom.gov.au/fwo/IDV60801/IDV60801.94835.axf

JavaScript Object Notation format (JSON) in row-major order
http://www.bom.gov.au/fwo/IDV60801/IDV60801.94835.json